Latest Weather Observations for Kilmore Gap

IDV60801

Issued at 8:03 am EDT Sunday 22 October 2017 (issued every 30 minutes, with the page automatically refreshed every 10 minutes)

About weather observations | Map of weather stations | Latest weather observations for VIC | Other Formats
Station Details ID: 088162 Name: KILMORE GAP Lat: -37.38 Lon: 144.97 Height: 527.8 m
Data from the previous 72 hours. | See also: Recent months at Kilmore Gap
Date/Time
EDT
Temp
°C
App
Temp
°C
Dew
Point
°C
Rel
Hum
%
Delta-T
°C
Wind Press
QNH
hPa
Press
MSL
hPa
Rain since
9am
mm
Dir  Spd
km/h
Gust
km/h
Spd
kts
Gust
kts
22/08:00am 7.1 1.8 7.0 99 0.0 SSW 24 33 13 18 1017.5 1017.3 0.4
22/07:30am 6.9 1.6 6.8 99 0.0 SSW 24 35 13 19 1017.3 1017.1 0.4
22/07:00am 6.7 1.4 6.6 99 0.0 SW 24 39 13 21 1017.2 1017.0 0.4
22/06:30am 6.7 0.2 6.6 99 0.0 SW 30 43 16 23 1017.1 1016.9 0.4
22/06:00am 6.8 0.3 6.7 99 0.0 SSW 30 39 16 21 1016.9 1016.6 0.4
22/05:30am 7.0 1.7 6.9 99 0.0 SSW 24 37 13 20 1016.9 1016.6 0.4
22/05:00am 6.8 1.5 6.7 99 0.0 SSW 24 39 13 21 1017.1 1016.9 0.4
22/04:30am 6.6 1.6 6.5 99 0.0 SSW 22 32 12 17 1017.1 1016.9 0.4
22/04:00am 6.5 1.5 6.4 99 0.0 SW 22 32 12 17 1017.2 1017.0 0.4
22/03:30am 6.5 1.5 6.4 99 0.0 SSW 22 33 12 18 1018.0 1017.8 0.2
22/03:00am 6.5 1.0 6.1 97 0.2 SSW 24 35 13 19 1018.3 1018.1 0.2
22/02:55am 6.6 1.5 6.0 96 0.3 SSW 22 35 12 19 1018.3 1018.1 0.2
22/02:30am 6.7 1.5 5.7 93 0.5 SSW 22 30 12 16 1018.5 1018.2 0.2
22/02:00am 6.6 1.4 5.7 94 0.4 SW 22 32 12 17 1018.9 1018.7 0.2
22/01:30am 6.6 1.1 5.7 94 0.4 SW 24 35 13 19 1019.2 1019.0 0.2
22/01:00am 6.4 0.6 6.3 99 0.0 SW 26 37 14 20 1019.5 1019.3 0.2
22/12:30am 6.2 1.1 6.1 99 0.0 SSW 22 33 12 18 1019.6 1019.4 0.2
22/12:00am 6.8 1.5 6.7 99 0.0 SSW 24 33 13 18 1019.9 1019.7 0.2
 
Date/Time
EDT
Temp
°C
App
Temp
°C
Dew
Point
°C
Rel
Hum
%
Delta-T
°C
Wind Press
QNH
hPa
Press
MSL
hPa
Rain since
9am
mm
Dir  Spd
km/h
Gust
km/h
Spd
kts
Gust
kts
21/11:52pm 6.8 1.9 6.7 99 0.0 SSW 22 32 12 17 1020.0 1019.8 0.2
21/11:30pm 7.1 1.8 7.0 99 0.0 SSW 24 33 13 18 1020.1 1019.9 0.2
21/11:02pm 7.4 2.2 7.3 99 0.0 SSW 24 37 13 20 1020.2 1020.1 0.2
21/11:00pm 7.4 2.6 7.3 99 0.0 SSW 22 35 12 19 1020.2 1020.1 0.2
21/10:32pm 7.7 3.3 7.6 99 0.0 SSW 20 30 11 16 1020.5 1020.3 0.2
21/10:30pm 7.6 3.2 7.5 99 0.0 SSW 20 30 11 16 1020.6 1020.4 0.2
21/10:00pm 7.5 2.7 7.4 99 0.0 SSW 22 41 12 22 1020.8 1020.6 0.2
21/09:59pm 7.6 2.8 7.5 99 0.0 SSW 22 41 12 22 1020.8 1020.6 0.2
21/09:30pm 8.0 3.7 7.9 99 0.0 S 20 28 11 15 1020.9 1020.7 0.2
21/09:00pm 7.9 3.2 7.8 99 0.0 S 22 30 12 16 1021.0 1020.8 0.2
21/08:30pm 7.8 2.6 7.4 97 0.2 S 24 35 13 19 1020.9 1020.7 0.0
21/08:27pm 7.8 2.6 7.4 97 0.2 S 24 35 13 19 1020.9 1020.7 0.0
21/08:25pm 7.8 2.6 7.4 97 0.2 S 24 35 13 19 1020.9 1020.7 0.0
21/08:00pm 8.2 2.6 7.1 93 0.5 S 26 35 14 19 1020.9 1020.7 0.0
21/07:30pm 8.9 3.6 6.7 86 1.1 S 24 32 13 17 1021.0 1020.8 0.0
21/07:00pm 9.1 3.3 6.4 83 1.3 S 26 32 14 17 1021.0 1020.8 0.0
21/06:30pm 9.4 4.1 6.7 83 1.3 S 24 32 13 17 1021.1 1020.9 0.0
21/06:00pm 9.6 3.4 6.3 80 1.6 S 28 33 15 18 1021.1 1020.9 0.0
21/05:30pm 9.8 5.2 5.8 76 1.9 SSW 19 26 10 14 1021.2 1021.0 0.0
21/05:00pm 10.0 4.1 5.8 75 2.0 S 26 35 14 19 1021.3 1021.1 0.0
21/04:30pm 10.4 4.4 5.4 71 2.4 S 26 35 14 19 1021.5 1021.3 0.0
21/04:00pm 10.5 5.2 5.1 69 2.5 SSW 22 32 12 17 1021.7 1021.5 0.0
21/03:30pm 10.9 5.3 5.2 68 2.7 S 24 33 13 18 1022.0 1021.9 0.0
21/03:00pm 11.2 4.9 5.5 68 2.7 S 28 35 15 19 1022.3 1022.2 0.0
21/02:30pm 10.6 4.6 5.4 70 2.5 S 26 39 14 21 1022.8 1022.6 0.0
21/02:00pm 10.5 5.2 5.1 69 2.5 S 22 32 12 17 1023.0 1022.8 0.0
21/01:30pm 10.1 5.4 6.1 76 1.9 S 20 32 11 17 1023.5 1023.4 0.0
21/01:00pm 9.5 4.1 4.7 72 2.2 S 22 33 12 18 1023.9 1023.8 0.0
21/12:30pm 9.7 3.3 5.1 73 2.1 S 28 41 15 22 1024.0 1023.9 0.0
21/12:00pm 9.9 4.7 5.7 75 2.0 SSW 22 33 12 18 1024.5 1024.3 0.0
21/11:59am 9.7 4.8 5.3 74 2.1 SSW 20 33 11 18 1024.5 1024.3 0.0
21/11:30am 8.9 4.1 5.8 81 1.5 SSW 20 28 11 15 1024.7 1024.5 0.0
21/11:00am 8.2 2.9 5.0 80 1.5 SSW 22 33 12 18 1024.8 1024.6 0.0
21/10:34am 8.3 2.7 5.6 83 1.3 SSW 24 37 13 20 1024.8 1024.6 0.0
21/10:30am 8.5 2.9 5.6 82 1.4 S 24 37 13 20 1024.8 1024.6 0.0
21/10:03am 8.7 3.1 5.6 81 1.4 S 24 35 13 19 1024.8 1024.6 0.0
21/10:00am 8.5 2.9 5.4 81 1.4 S 24 35 13 19 1024.8 1024.6 0.0
21/09:47am 7.9 2.6 5.2 83 1.2 SSW 22 33 12 18 1024.8 1024.6 0.0
21/09:40am 8.1 2.5 5.2 82 1.3 S 24 35 13 19 1024.8 1024.6 0.0
21/09:30am 8.0 2.4 5.3 83 1.2 SSW 24 39 13 21 1024.8 1024.6 0.0
21/09:13am 7.5 2.6 5.1 85 1.1 SSW 20 30 11 16 1024.9 1024.7 0.0
21/09:00am 7.5 2.6 5.0 84 1.1 SSW 20 37 11 20 1024.9 1024.7 0.0
21/08:30am 7.0 1.2 4.5 84 1.1 SSW 24 37 13 20 1024.6 1024.4 0.0
21/08:25am 6.8 1.0 4.5 85 1.0 SSW 24 35 13 19 1024.6 1024.4 0.0
21/08:00am 6.3 0.6 4.8 90 0.7 SSW 24 33 13 18 1024.6 1024.4 0.0
21/07:30am 6.1 -0.1 4.3 88 0.8 SSW 26 37 14 20 1024.7 1024.5 0.0
21/07:00am 6.2 0.3 4.0 86 1.0 SSW 24 37 13 20 1024.6 1024.4 0.0
21/06:30am 6.2 0.3 4.0 86 1.0 SSW 24 33 13 18 1024.5 1024.3 0.0
21/06:00am 6.2 0.3 3.7 84 1.1 SSW 24 33 13 18 1024.6 1024.4 0.0
21/05:30am 6.2 0.6 3.7 84 1.1 SSW 22 33 12 18 1024.5 1024.3 0.0
21/05:02am 6.3 0.3 3.6 83 1.2 SSW 24 35 13 19 1024.7 1024.5 0.0
21/05:00am 6.3 0.3 3.6 83 1.2 SSW 24 32 13 17 1024.7 1024.5 0.0
21/04:39am 6.3 0.3 3.6 83 1.2 SSW 24 35 13 19 1024.6 1024.4 0.0
21/04:30am 6.4 0.1 3.7 83 1.2 SSW 26 37 14 20 1024.6 1024.4 0.0
21/04:00am 6.4 -0.3 3.9 84 1.1 S 28 39 15 21 1024.8 1024.6 0.0
21/03:30am 6.4 0.5 3.9 84 1.1 SSW 24 35 13 19 1025.2 1025.1 0.0
21/03:16am 6.5 0.2 4.0 84 1.1 SSW 26 39 14 21 1025.3 1025.2 0.0
21/03:00am 6.5 0.6 4.0 84 1.1 SSW 24 37 13 20 1025.4 1025.3 0.0
21/02:30am 7.1 0.4 3.9 80 1.4 S 28 43 15 23 1025.6 1025.5 0.0
21/02:08am 7.1 0.4 3.5 78 1.6 S 28 46 15 25 1025.7 1025.6 0.0
21/02:00am 7.1 0.0 3.5 78 1.6 S 30 43 16 23 1025.9 1025.8 0.0
21/01:30am 7.4 0.1 4.4 81 1.3 S 32 44 17 24 1026.0 1025.9 0.0
21/01:00am 7.3 0.0 4.3 81 1.3 S 32 43 17 23 1026.3 1026.2 0.0
21/12:30am 7.4 0.4 4.2 80 1.4 S 30 46 16 25 1026.7 1026.5 0.0
21/12:22am 7.4 0.8 4.0 79 1.5 S 28 46 15 25 1026.6 1026.4 0.0
21/12:00am 7.4 0.8 4.0 79 1.5 S 28 43 15 23 1026.9 1026.8 0.0
 
Date/Time
EDT
Temp
°C
App
Temp
°C
Dew
Point
°C
Rel
Hum
%
Delta-T
°C
Wind Press
QNH
hPa
Press
MSL
hPa
Rain since
9am
mm
Dir  Spd
km/h
Gust
km/h
Spd
kts
Gust
kts
20/11:45pm 7.4 0.8 4.0 79 1.5 S 28 46 15 25 1026.9 1026.8 0.0
20/11:30pm 7.4 -0.3 3.6 77 1.7 S 33 48 18 26 1027.1 1027.0 0.0
20/11:05pm 7.4 0.0 4.0 79 1.5 S 32 50 17 27 1027.0 1026.9 0.0
20/11:00pm 7.5 -0.9 3.9 78 1.6 S 37 50 20 27 1027.1 1027.0 0.0
20/10:30pm 7.4 -0.3 3.6 77 1.7 S 33 50 18 27 1027.1 1027.0 0.0
20/10:00pm 7.2 -0.2 4.2 81 1.3 S 32 43 17 23 1027.3 1027.2 0.0
20/09:30pm 7.0 -0.5 4.7 85 1.0 S 33 48 18 26 1027.1 1027.0 0.0
20/09:00pm 7.1 -2.6 4.1 81 1.3 S 44 54 24 29 1026.9 1026.8 0.0
20/08:30pm 7.3 -1.4 4.1 80 1.4 S 39 56 21 30 1026.7 1026.5 0.0
20/08:00pm 7.4 -2.8 3.1 74 1.9 S 46 56 25 30 1026.1 1026.0 0.0
20/07:30pm 8.0 -1.7 2.7 69 2.3 S 43 57 23 31 1026.2 1026.1 0.0
20/07:05pm 8.3 -0.7 2.5 67 2.5 S 39 57 21 31 1026.3 1026.2 0.0
20/07:00pm 8.3 -0.6 3.2 70 2.2 S 39 54 21 29 1026.3 1026.2 0.0
20/06:46pm 8.5 0.3 2.9 68 2.5 S 35 54 19 29 1026.4 1026.3 0.0
20/06:30pm 9.0 -0.3 2.8 65 2.7 S 41 56 22 30 1026.2 1026.1 0.0
20/06:00pm 9.8 0.6 3.5 65 2.8 S 41 57 22 31 1026.0 1025.9 0.0
20/05:49pm 10.2 2.5 3.5 63 3.0 S 33 54 18 29 1026.1 1026.0 0.0
20/05:30pm 10.2 -0.1 2.6 59 3.4 S 46 57 25 31 1025.9 1025.8 0.0
20/05:10pm 11.0 1.9 3.8 61 3.3 S 41 59 22 32 1025.9 1025.8 0.0
20/05:00pm 10.9 1.3 3.2 59 3.4 S 43 57 23 31 1025.8 1025.7 0.0
20/04:30pm 12.0 4.8 5.0 62 3.3 S 32 50 17 27 1025.8 1025.7 0.0
20/04:07pm 11.6 2.5 4.1 60 3.5 S 41 59 22 32 1025.7 1025.6 0.0
20/04:00pm 11.5 2.0 4.0 60 3.4 S 43 56 23 30 1025.6 1025.5 0.0
20/03:47pm 11.9 2.6 2.9 54 4.1 S 41 59 22 32 1025.7 1025.6 0.0
20/03:30pm 11.9 2.1 3.4 56 3.9 S 44 59 24 32 1025.7 1025.6 0.0
20/03:00pm 12.1 4.0 3.3 55 4.0 S 35 63 19 34 1025.9 1025.8 0.0
20/02:30pm 12.3 2.8 4.0 57 3.9 S 43 63 23 34 1026.0 1025.9 0.0
20/02:01pm 12.6 4.7 4.3 57 3.9 S 35 54 19 29 1026.0 1025.9 0.0
20/02:00pm 12.4 4.9 4.4 58 3.7 S 33 48 18 26 1026.1 1026.0 0.0
20/01:40pm 12.8 5.4 4.8 58 3.8 S 33 52 18 28 1026.2 1026.1 0.0
20/01:30pm 11.9 3.1 3.7 57 3.8 S 39 52 21 28 1026.1 1026.0 0.0
20/01:03pm 11.4 4.1 4.6 63 3.2 S 32 50 17 27 1026.2 1026.1 0.0
20/01:00pm 10.7 3.4 4.4 65 2.9 SSW 32 50 17 27 1026.2 1026.1 0.0
20/12:49pm 10.4 3.2 5.2 70 2.4 SSW 32 50 17 27 1026.1 1026.0 0.0
20/12:48pm 10.8 3.7 5.6 70 2.5 SSW 32 50 17 27 1026.2 1026.1 0.0
20/12:30pm 12.1 3.3 5.5 64 3.2 S 41 57 22 31 1026.2 1026.1 0.0
20/12:00pm 10.4 3.3 5.6 72 2.3 SSW 32 52 17 28 1026.6 1026.4 0.0
20/11:31am 11.5 3.7 4.7 63 3.2 S 35 54 19 29 1026.3 1026.2 0.0
20/11:30am 11.6 3.4 4.6 62 3.3 S 37 54 20 29 1026.4 1026.3 0.0
20/11:11am 11.0 2.9 5.1 67 2.8 S 37 56 20 30 1026.4 1026.3 0.0
20/11:00am 9.8 1.0 3.8 66 2.7 S 39 54 21 29 1026.6 1026.4 0.0
20/10:31am 9.5 1.9 3.7 67 2.6 S 33 52 18 28 1026.3 1026.2 0.0
20/10:30am 9.8 1.8 4.0 67 2.6 S 35 52 19 28 1026.3 1026.2 0.0
20/10:02am 10.3 3.2 5.7 73 2.2 SSW 32 56 17 30 1026.1 1026.0 0.0
20/10:00am 9.7 3.0 5.5 75 2.0 SSW 30 43 16 23 1026.2 1026.1 0.0
20/09:30am 9.5 2.4 5.5 76 1.9 S 32 50 17 27 1026.0 1025.9 0.0
20/09:27am 9.8 3.5 5.6 75 2.0 S 28 50 15 27 1025.9 1025.8 0.0
20/09:00am 8.9 3.7 7.2 89 0.8 SSW 24 35 13 19 1025.7 1025.6 3.6
20/08:40am 7.8 2.9 6.7 93 0.5 S 22 35 12 19 1025.6 1025.5 3.6
20/08:30am 7.4 1.5 6.0 91 0.7 SSW 26 39 14 21 1025.6 1025.5 3.6
20/08:00am 7.4 2.0 6.5 94 0.4 SSW 24 37 13 20 1025.2 1025.1 3.6
20/07:41am 6.9 1.5 6.5 97 0.2 SSW 24 41 13 22 1025.0 1024.8 3.6
20/07:30am 6.8 1.4 6.2 96 0.3 SSW 24 33 13 18 1024.9 1024.7 3.6
20/07:19am 6.8 1.4 6.2 96 0.3 SSW 24 33 13 18 1024.8 1024.6 3.6
20/07:00am 6.9 1.2 6.6 98 0.1 SSW 26 39 14 21 1024.6 1024.4 3.6
20/06:45am 6.8 0.7 6.5 98 0.1 SSW 28 43 15 23 1024.2 1024.1 3.6
20/06:30am 6.6 1.2 6.3 98 0.1 SSW 24 35 13 19 1024.0 1023.9 3.6
20/06:21am 6.7 1.3 6.4 98 0.1 SSW 24 35 13 19 1023.9 1023.8 3.6
20/06:00am 7.1 1.8 6.8 98 0.1 SSW 24 37 13 20 1023.6 1023.5 3.6
20/05:30am 7.2 2.3 6.9 98 0.1 SSW 22 32 12 17 1023.5 1023.4 3.6
20/05:13am 6.9 2.3 6.5 97 0.2 SSW 20 32 11 17 1023.5 1023.4 3.6
20/05:08am 6.8 1.7 6.2 96 0.3 SSW 22 37 12 20 1023.4 1023.2 3.6
20/05:00am 6.9 0.4 6.5 97 0.2 SSW 30 44 16 24 1023.3 1023.1 3.6
20/04:31am 6.8 1.7 6.2 96 0.3 SSW 22 35 12 19 1023.2 1023.0 3.6
20/04:30am 6.9 1.9 6.3 96 0.3 SSW 22 35 12 19 1023.2 1023.0 3.6
20/04:00am 6.6 2.1 5.9 95 0.3 SSW 19 28 10 15 1023.0 1022.8 3.6
20/03:30am 7.0 2.3 5.9 93 0.5 SSW 20 28 11 15 1023.0 1022.8 3.6
20/03:00am 7.0 2.3 5.9 93 0.5 SSW 20 26 11 14 1023.1 1022.9 3.6
20/02:30am 7.2 2.4 5.8 91 0.6 SSW 20 26 11 14 1023.1 1022.9 3.6
20/02:00am 7.1 2.3 5.7 91 0.6 S 20 28 11 15 1023.2 1023.0 3.6
20/01:30am 7.1 2.3 5.6 90 0.7 S 20 26 11 14 1023.2 1023.0 3.6
20/01:00am 7.3 2.7 5.4 88 0.9 S 19 28 10 15 1023.5 1023.4 3.6
20/12:30am 8.0 3.2 5.6 85 1.1 SSW 20 30 11 16 1023.6 1023.5 3.6
20/12:00am 8.5 3.3 5.6 82 1.3 SSW 22 35 12 19 1023.6 1023.5 3.6
 
Date/Time
EDT
Temp
°C
App
Temp
°C
Dew
Point
°C
Rel
Hum
%
Delta-T
°C
Wind Press
QNH
hPa
Press
MSL
hPa
Rain since
9am
mm
Dir  Spd
km/h
Gust
km/h
Spd
kts
Gust
kts
19/11:30pm 8.8 3.7 5.9 82 1.4 SSW 22 33 12 18 1023.5 1023.4 3.6
19/11:00pm 9.4 4.8 6.5 82 1.4 SSW 20 28 11 15 1023.6 1023.5 3.6
19/10:30pm 10.0 5.1 6.9 81 1.5 S 22 35 12 19 1023.6 1023.5 3.6
19/10:01pm 10.7 5.7 7.9 83 1.4 S 24 35 13 19 1023.4 1023.2 3.6
19/10:00pm 10.6 5.5 7.8 83 1.4 S 24 35 13 19 1023.3 1023.1 3.6
19/09:30pm 11.1 6.1 10.8 98 0.2 S 28 39 15 21 1022.7 1022.5 3.6
19/09:00pm 11.6 6.6 11.0 96 0.3 S 28 39 15 21 1022.5 1022.3 3.6
19/08:57pm 11.7 7.1 11.1 96 0.3 S 26 33 14 18 1022.8 1022.6 3.6
19/08:30pm 12.1 7.4 9.3 83 1.5 S 24 35 13 19 1022.0 1021.9 3.6
19/08:14pm 12.3 7.6 9.3 82 1.6 S 24 37 13 20 1021.8 1021.6 3.6
19/08:00pm 12.5 7.9 9.7 83 1.5 S 24 37 13 20 1021.6 1021.4 3.6
19/07:30pm 12.9 7.7 10.3 84 1.4 S 28 44 15 24 1020.3 1020.2 3.6
19/07:00pm 13.4 9.6 12.5 94 0.5 S 24 35 13 19 1020.1 1019.9 3.6
19/06:30pm 14.8 11.4 13.8 94 0.6 SSW 24 35 13 19 1019.1 1018.9 3.6
19/06:00pm 16.0 13.6 14.5 91 0.9 SSW 20 30 11 16 1018.6 1018.3 3.6
19/05:55pm 16.1 13.4 14.5 90 0.9 S 22 33 12 18 1018.1 1017.9 3.6
19/05:30pm 18.1 15.5 14.8 81 2.0 SW 22 44 12 24 1017.9 1017.7 3.6
19/05:00pm 20.7 17.4 13.9 65 4.0 W 24 33 13 18 1017.6 1017.4 3.6
19/04:30pm 21.5 18.8 14.6 65 4.1 W 22 32 12 17 1017.4 1017.2 3.6
19/04:00pm 21.3 16.5 14.7 66 4.0 W 33 46 18 25 1017.5 1017.3 3.6
19/03:49pm 21.6 18.4 15.4 68 3.8 W 26 44 14 24 1017.4 1017.2 3.6
19/03:30pm 21.7 21.3 18.1 80 2.3 NW 17 24 9 13 1017.5 1017.3 3.6
19/03:00pm 20.9 20.6 19.6 92 0.8 NNW 20 28 11 15 1017.7 1017.5 3.6
19/02:30pm 19.6 18.5 17.7 89 1.2 N 20 24 11 13 1017.8 1017.6 2.4
19/02:03pm 20.0 18.2 17.8 87 1.4 N 24 33 13 18 1017.9 1017.7 2.2
19/02:00pm 20.0 17.8 17.8 87 1.4 N 26 33 14 18 1017.8 1017.6 2.2
19/01:42pm 20.3 18.3 18.2 88 1.3 N 26 35 14 19 1017.9 1017.7 2.2
19/01:30pm 20.5 17.4 18.4 88 1.3 N 32 43 17 23 1018.1 1017.9 2.2
19/01:00pm 18.8 15.8 18.6 99 0.1 N 32 43 17 23 1017.7 1017.5 2.2
19/12:35pm 17.1 13.3 17.1 100 0.0 N 33 43 18 23 1017.7 1017.5 2.2
19/12:30pm 16.9 12.5 16.7 99 0.1 N 35 44 19 24 1017.5 1017.3 2.2
19/12:00pm 17.1 13.8 16.1 94 0.6 N 28 37 15 20 1018.2 1018.0 1.0
19/11:45am 17.3 13.8 15.5 89 1.1 N 28 35 15 19 1018.6 1018.3 0.6
19/11:30am 18.1 14.6 15.4 84 1.6 N 28 33 15 18 1018.3 1018.1 0.0
19/11:00am 18.2 14.5 14.9 81 2.0 N 28 39 15 21 1018.5 1018.2 0.0
19/10:30am 17.4 13.3 13.7 79 2.2 N 28 37 15 20 1018.6 1018.3 0.0
19/10:00am 17.5 12.4 13.2 76 2.5 N 32 41 17 22 1018.3 1018.1 0.0
19/09:30am 17.6 12.4 12.9 74 2.7 N 32 41 17 22 1018.1 1017.9 0.0
19/09:00am 17.5 13.0 12.6 73 2.8 N 28 39 15 21 1018.0 1017.8 0.0
19/08:30am 17.0 11.5 11.9 72 2.9 N 32 41 17 22 1018.0 1017.8 0.0

Other Formats:

Comma delimited format used in spreadsheet applications
http://www.bom.gov.au/fwo/IDV60801/IDV60801.94860.axf

JavaScript Object Notation format (JSON) in row-major order
http://www.bom.gov.au/fwo/IDV60801/IDV60801.94860.json